Time;durP1;ratioP1;P1;durP2;ratioP2;P2;SDS_P1;SDS_P2;PMS_P1;PMS_P2;Temp;Humidity;BMP_temperature;BMP_pressure;BME280_temperature;BME280_humidity;BME280_pressure;Samples;Min_cycle;Max_cycle;Signal;HPM_P1;HPM_P2
2020/12/10 00:00:12;;;;;;;43.70;22.38;;;;;;;6.18;70.48;100888.03;5037448;28;20112;-83
2020/12/10 00:02:39;;;;;;;42.38;22.67;;;;;;;6.19;70.49;100883.63;5034206;28;20034;-83
2020/12/10 00:05:07;;;;;;;46.63;23.38;;;;;;;6.19;70.57;100881.00;5033145;28;20041;-83
2020/12/10 00:07:35;;;;;;;44.20;21.85;;;;;;;6.22;70.50;100873.09;5025892;28;20042;-83
2020/12/10 00:10:04;;;;;;;44.88;22.73;;;;;;;6.18;70.47;100869.63;5010986;28;20501;-83
2020/12/10 00:12:30;;;;;;;36.75;21.67;;;;;;;6.18;70.39;100868.72;5016588;28;20034;-83
2020/12/10 00:14:57;;;;;;;43.00;21.88;;;;;;;6.18;70.66;100863.47;5033139;28;20028;-83
2020/12/10 00:17:25;;;;;;;42.33;21.88;;;;;;;6.19;70.37;100865.22;5020590;28;20445;-83
2020/12/10 00:19:52;;;;;;;35.65;21.48;;;;;;;6.22;70.42;100865.19;5025424;28;20556;-83
2020/12/10 00:22:18;;;;;;;38.03;21.90;;;;;;;6.21;70.24;100860.84;5029239;28;20049;-83
2020/12/10 00:24:47;;;;;;;37.15;20.88;;;;;;;6.22;70.27;100857.31;5036794;28;20034;-83
2020/12/10 00:27:15;;;;;;;41.60;22.75;;;;;;;6.21;70.50;100853.81;5022291;28;20056;-82
2020/12/10 00:29:57;;;;;;;39.70;21.13;;;;;;;6.23;70.43;100861.69;5016896;28;20036;-81
2020/12/10 00:32:25;;;;;;;38.20;20.83;;;;;;;6.21;70.45;100853.81;5033911;28;20053;-83
2020/12/10 00:34:52;;;;;;;39.33;21.13;;;;;;;6.23;70.40;100851.16;5024961;28;20056;-84
2020/12/10 00:37:18;;;;;;;39.75;21.20;;;;;;;6.21;70.36;100842.44;5026267;28;20057;-83
2020/12/10 00:39:45;;;;;;;35.80;20.73;;;;;;;6.21;70.15;100843.28;5025927;28;20057;-84
2020/12/10 00:42:11;;;;;;;42.65;20.65;;;;;;;6.11;70.84;100837.16;5025090;28;20484;-84
2020/12/10 00:44:38;;;;;;;42.30;20.50;;;;;;;6.17;70.36;100835.41;5025680;28;20101;-83
2020/12/10 00:47:04;;;;;;;41.08;21.20;;;;;;;6.20;70.31;100840.66;5023682;28;20083;-83
2020/12/10 00:49:31;;;;;;;36.58;20.95;;;;;;;6.18;70.48;100845.94;5025281;28;20116;-83
2020/12/10 00:51:57;;;;;;;31.80;19.38;;;;;;;6.14;70.40;100852.97;5027606;28;20041;-84
2020/12/10 00:54:24;;;;;;;38.85;20.48;;;;;;;6.13;70.44;100850.31;5026083;28;20543;-83
2020/12/10 00:56:50;;;;;;;33.40;19.58;;;;;;;6.17;70.38;100846.81;5024104;28;20044;-83
2020/12/10 00:59:17;;;;;;;43.30;20.30;;;;;;;6.17;70.39;100841.56;5024390;28;20353;-84
2020/12/10 01:01:44;;;;;;;34.60;18.60;;;;;;;6.12;70.64;100844.19;5025581;28;20057;-83
2020/12/10 01:04:13;;;;;;;36.25;20.17;;;;;;;6.08;70.78;100847.72;5024028;28;20486;-82
2020/12/10 01:06:40;;;;;;;32.10;18.58;;;;;;;6.13;70.37;100847.69;5024157;28;20126;-83
2020/12/10 01:09:09;;;;;;;37.35;20.35;;;;;;;6.07;70.78;100851.22;5035247;28;20041;-83
2020/12/10 01:11:36;;;;;;;37.10;19.58;;;;;;;6.12;70.35;100844.19;5036194;28;20057;-82
2020/12/10 01:14:05;;;;;;;34.88;19.05;;;;;;;6.11;70.47;100845.06;5035847;28;20029;-83
2020/12/10 01:16:32;;;;;;;36.65;19.27;;;;;;;6.08;70.52;100842.44;5035762;28;20033;-84
2020/12/10 01:18:59;;;;;;;33.42;19.70;;;;;;;6.05;70.63;100841.56;5035759;28;20477;-83
2020/12/10 01:21:30;;;;;;;30.08;16.90;;;;;;;6.09;70.64;100838.03;5035615;28;20033;-84
2020/12/10 01:23:58;;;;;;;34.33;17.30;;;;;;;5.99;70.65;100838.06;5035479;28;20030;-84
2020/12/10 01:26:25;;;;;;;33.88;17.23;;;;;;;6.09;70.45;100845.94;5035904;28;20026;-83
2020/12/10 01:28:52;;;;;;;32.00;18.27;;;;;;;6.06;70.13;100844.19;5035457;28;20109;-84
2020/12/10 01:31:18;;;;;;;30.35;15.82;;;;;;;6.08;70.46;100842.44;5035658;28;20059;-82
2020/12/10 01:33:45;;;;;;;29.35;16.45;;;;;;;6.06;70.43;100838.94;5035229;28;20029;-83
2020/12/10 01:36:18;;;;;;;30.98;17.08;;;;;;;6.08;70.43;100842.44;5035677;28;20025;-83
2020/12/10 01:38:44;;;;;;;29.15;16.80;;;;;;;6.03;70.50;100838.94;5035067;28;20048;-84
2020/12/10 01:41:11;;;;;;;28.50;16.30;;;;;;;6.04;70.26;100834.56;5027524;28;20077;-83
2020/12/10 01:43:38;;;;;;;28.45;16.58;;;;;;;6.09;70.13;100828.41;5017941;28;20030;-83
2020/12/10 01:46:06;;;;;;;30.80;15.38;;;;;;;6.07;69.94;100819.66;5015481;28;20026;-82
2020/12/10 01:48:34;;;;;;;27.60;16.08;;;;;;;6.04;70.04;100819.63;5015536;28;20034;-83
2020/12/10 01:51:01;;;;;;;26.63;15.65;;;;;;;6.07;69.94;100822.28;5015576;28;20029;-82
2020/12/10 01:53:28;;;;;;;26.92;15.30;;;;;;;6.09;69.73;100825.78;5015182;28;20061;-83
2020/12/10 01:55:54;;;;;;;27.13;15.80;;;;;;;6.06;70.28;100817.88;5015160;28;20037;-82
2020/12/10 01:58:21;;;;;;;23.98;14.63;;;;;;;6.03;69.70;100812.66;5015643;28;20113;-82
2020/12/10 02:00:50;;;;;;;27.35;16.15;;;;;;;5.97;70.10;100810.00;5015196;28;20076;-82
2020/12/10 02:03:17;;;;;;;25.52;14.93;;;;;;;5.97;69.85;100807.38;5014886;28;20480;-82
2020/12/10 02:05:45;;;;;;;31.52;16.70;;;;;;;5.97;69.91;100810.00;5015247;28;20043;-82
2020/12/10 02:08:12;;;;;;;27.58;15.63;;;;;;;5.99;69.82;100805.63;5015495;28;20354;-82
2020/12/10 02:10:47;;;;;;;26.30;14.07;;;;;;;6.02;69.66;100802.09;5015050;28;20564;-81
2020/12/10 02:13:24;;;;;;;27.42;14.95;;;;;;;6.05;69.54;100805.59;5014438;28;20036;-81
2020/12/10 02:16:00;;;;;;;24.50;13.88;;;;;;;6.03;69.57;100809.13;5013645;28;20451;-81
2020/12/10 02:18:27;;;;;;;25.33;14.25;;;;;;;6.01;69.74;100813.50;5022530;28;20014;-82
2020/12/10 02:20:53;;;;;;;23.17;14.35;;;;;;;5.96;69.70;100813.50;5034529;28;20025;-83
2020/12/10 02:23:20;;;;;;;22.15;13.55;;;;;;;5.98;69.77;100803.81;5034793;28;20041;-82
2020/12/10 02:25:46;;;;;;;26.25;14.13;;;;;;;5.98;69.56;100803.81;5034471;28;20111;-83
2020/12/10 02:28:16;;;;;;;25.50;14.32;;;;;;;5.98;69.54;100793.31;5034475;28;20032;-82
2020/12/10 02:30:45;;;;;;;26.27;14.38;;;;;;;5.97;69.62;100800.34;5034219;28;20033;-82
2020/12/10 02:33:12;;;;;;;24.00;14.15;;;;;;;5.90;69.51;100785.44;5034057;28;20540;-82
2020/12/10 02:35:41;;;;;;;29.17;14.18;;;;;;;5.85;69.68;100781.09;5034521;28;20120;-82
2020/12/10 02:38:10;;;;;;;23.77;12.82;;;;;;;5.72;69.47;100780.19;5034378;28;20022;-82
2020/12/10 02:40:40;;;;;;;24.75;13.85;;;;;;;5.68;69.43;100789.84;5031035;28;20492;-82
2020/12/10 02:43:07;;;;;;;26.58;13.85;;;;;;;5.60;69.42;100789.00;5013867;28;20030;-81
2020/12/10 02:45:33;;;;;;;24.33;14.02;;;;;;;5.54;69.20;100786.38;5014505;28;20037;-82
2020/12/10 02:48:00;;;;;;;26.83;13.38;;;;;;;5.47;69.33;100781.09;5014595;28;20374;-82
2020/12/10 02:50:26;;;;;;;23.88;13.48;;;;;;;5.39;69.38;100772.34;5014484;28;20034;-82
2020/12/10 02:52:53;;;;;;;24.55;12.85;;;;;;;5.33;69.30;100772.31;5013997;28;20125;-82
2020/12/10 02:55:19;;;;;;;26.02;13.20;;;;;;;5.29;69.32;100781.09;5014269;28;20038;-81
2020/12/10 02:57:46;;;;;;;25.23;12.73;;;;;;;5.22;69.45;100779.34;5014021;28;20512;-82
2020/12/10 03:00:12;;;;;;;24.15;13.75;;;;;;;5.14;69.64;100779.31;5013836;28;20061;-83
2020/12/10 03:02:39;;;;;;;25.52;14.50;;;;;;;5.15;69.82;100779.31;5014548;28;20466;-82
2020/12/10 03:05:07;;;;;;;26.83;14.43;;;;;;;5.21;69.93;100777.56;5013830;28;20385;-83
2020/12/10 03:07:34;;;;;;;22.80;13.23;;;;;;;5.22;70.31;100774.06;5014166;28;20426;-82
2020/12/10 03:10:03;;;;;;;23.05;12.82;;;;;;;5.26;70.30;100773.19;5014035;28;20462;-84
2020/12/10 03:12:30;;;;;;;23.88;14.10;;;;;;;5.31;70.03;100771.47;5014178;28;20030;-83
2020/12/10 03:14:56;;;;;;;26.67;13.85;;;;;;;5.32;70.45;100760.06;5014371;28;20033;-84
2020/12/10 03:17:23;;;;;;;22.23;13.05;;;;;;;5.35;70.56;100765.34;5013916;28;20465;-83
2020/12/10 03:19:49;;;;;;;27.15;14.60;;;;;;;5.38;70.85;100756.56;5013981;28;20022;-84
2020/12/10 03:22:16;;;;;;;25.10;13.55;;;;;;;5.40;70.69;100758.31;5014444;28;20026;-83
2020/12/10 03:24:42;;;;;;;26.65;13.48;;;;;;;5.44;70.51;100754.81;5013584;28;20448;-84
2020/12/10 03:27:09;;;;;;;22.90;12.82;;;;;;;5.48;70.67;100756.59;5013701;28;20022;-83
2020/12/10 03:29:35;;;;;;;29.08;13.70;;;;;;;5.41;70.65;100754.81;5013693;28;20030;-84
2020/12/10 03:32:03;;;;;;;23.85;13.02;;;;;;;5.49;70.76;100752.19;5013520;28;20389;-83
2020/12/10 03:34:30;;;;;;;26.45;12.85;;;;;;;5.49;70.52;100755.69;5014014;28;20064;-83
2020/12/10 03:36:57;;;;;;;29.45;13.27;;;;;;;5.58;70.34;100751.31;5013742;28;20026;-83
2020/12/10 03:39:26;;;;;;;24.67;13.38;;;;;;;5.59;70.21;100739.94;5013518;28;20026;-83
2020/12/10 03:41:53;;;;;;;28.17;15.43;;;;;;;5.55;70.43;100735.56;5029593;28;20057;-83
2020/12/10 03:44:20;;;;;;;26.45;13.63;;;;;;;5.49;70.25;100736.44;5017261;28;20034;-84
2020/12/10 03:46:47;;;;;;;27.02;15.30;;;;;;;5.52;70.33;100731.19;5013726;28;20037;-83
2020/12/10 03:49:14;;;;;;;24.65;14.27;;;;;;;5.53;70.57;100739.94;5013634;28;20497;-84
2020/12/10 03:51:41;;;;;;;22.58;13.32;;;;;;;5.58;70.17;100740.78;5013426;28;20565;-84
2020/12/10 03:54:08;;;;;;;25.05;13.43;;;;;;;5.53;70.21;100737.31;5014614;28;20547;-83
2020/12/10 03:56:34;;;;;;;27.35;14.15;;;;;;;5.56;70.38;100737.28;5017658;28;20092;-83
2020/12/10 03:59:02;;;;;;;26.42;14.85;;;;;;;5.57;70.29;100733.78;5017810;28;20022;-83
2020/12/10 04:01:29;;;;;;;27.98;14.00;;;;;;;5.55;70.17;100735.56;5023555;28;20447;-83
2020/12/10 04:03:56;;;;;;;24.25;12.80;;;;;;;5.51;70.38;100738.16;5037003;28;20025;-83
2020/12/10 04:06:23;;;;;;;27.30;13.95;;;;;;;5.50;70.31;100728.53;5035696;28;20095;-83
2020/12/10 04:08:49;;;;;;;23.08;13.82;;;;;;;5.52;70.53;100731.19;5037347;28;20029;-83
2020/12/10 04:11:16;;;;;;;24.67;12.93;;;;;;;5.54;70.12;100736.44;5037250;28;20518;-83
2020/12/10 04:13:42;;;;;;;25.33;14.05;;;;;;;5.47;70.56;100727.66;5037068;28;20045;-83
2020/12/10 04:16:09;;;;;;;24.77;12.95;;;;;;;5.41;70.25;100725.94;5036749;28;20030;-83
2020/12/10 04:18:39;;;;;;;22.65;12.93;;;;;;;5.46;70.21;100721.53;5036442;28;20041;-84
2020/12/10 04:21:07;;;;;;;25.60;12.98;;;;;;;5.43;70.22;100718.94;5036656;28;20464;-83
2020/12/10 04:23:34;;;;;;;24.48;12.90;;;;;;;5.34;70.42;100721.53;5036949;28;20033;-84
2020/12/10 04:26:00;;;;;;;27.05;13.38;;;;;;;5.27;70.38;100725.94;5036896;28;20030;-85
2020/12/10 04:28:27;;;;;;;24.48;14.30;;;;;;;5.24;70.33;100732.94;5036891;28;20026;-84
2020/12/10 04:30:53;;;;;;;27.02;14.45;;;;;;;5.27;69.89;100739.06;5036024;28;20072;-85
2020/12/10 04:33:20;;;;;;;29.15;15.50;;;;;;;5.19;70.20;100744.28;5036472;28;20030;-85
2020/12/10 04:35:46;;;;;;;27.77;14.88;;;;;;;5.18;70.15;100737.31;5036311;28;20031;-84
2020/12/10 04:38:13;;;;;;;34.00;16.42;;;;;;;5.11;70.44;100737.28;5036309;28;20022;-83
2020/12/10 04:40:39;;;;;;;28.75;15.48;;;;;;;5.09;70.02;100744.31;5036117;28;20457;-84
2020/12/10 04:43:08;;;;;;;32.97;16.65;;;;;;;5.02;70.43;100738.16;5036450;28;20040;-83
2020/12/10 04:45:34;;;;;;;33.65;16.80;;;;;;;4.96;70.47;100736.41;5036032;28;20029;-84
2020/12/10 04:48:01;;;;;;;32.00;16.60;;;;;;;4.95;70.19;100734.66;5036140;28;20022;-84
2020/12/10 04:50:31;;;;;;;38.25;16.67;;;;;;;4.78;70.24;100742.50;5036701;28;20041;-83
2020/12/10 04:52:58;;;;;;;28.90;15.43;;;;;;;4.82;69.75;100744.28;5035994;28;20479;-84
2020/12/10 04:55:26;;;;;;;34.90;16.10;;;;;;;4.68;70.07;100745.97;5036310;28;20087;-83
2020/12/10 04:57:54;;;;;;;32.92;16.52;;;;;;;4.67;70.26;100744.22;5036402;28;20022;-84
2020/12/10 05:00:21;;;;;;;29.27;15.40;;;;;;;4.64;70.25;100745.09;5035733;28;20041;-83
2020/12/10 05:02:48;;;;;;;26.50;15.18;;;;;;;4.61;70.26;100744.19;5034624;28;20508;-84
2020/12/10 05:05:31;;;;;;;33.92;17.00;;;;;;;4.52;69.77;100750.28;5035436;28;20029;-83
2020/12/10 05:08:01;;;;;;;28.38;15.98;;;;;;;4.47;70.13;100746.78;5035861;28;20030;-84
2020/12/10 05:10:27;;;;;;;25.58;15.23;;;;;;;4.41;70.04;100744.13;5035903;28;20037;-84
2020/12/10 05:13:11;;;;;;;33.33;16.58;;;;;;;4.35;70.11;100747.63;5035739;28;20071;-83
2020/12/10 05:15:40;;;;;;;30.05;16.83;;;;;;;4.20;70.23;100744.06;5036143;28;20116;-82
2020/12/10 05:23:37;;;;;;;33.10;15.80;;;;;;;4.03;70.04;100761.47;5090800;28;20458;-83
2020/12/10 05:26:04;;;;;;;30.70;15.85;;;;;;;4.01;70.12;100760.56;5070560;28;20061;-83
2020/12/10 05:28:48;;;;;;;28.77;15.43;;;;;;;3.97;69.57;100761.41;5068503;28;20029;-85
2020/12/10 05:31:17;;;;;;;29.65;15.55;;;;;;;3.92;70.11;100757.91;5047483;28;20029;-83
2020/12/10 05:34:04;;;;;;;32.03;15.88;;;;;;;3.96;70.10;100760.56;5035613;28;20124;-82
2020/12/10 05:36:32;;;;;;;24.98;14.65;;;;;;;3.84;69.94;100760.47;5047531;28;20022;-80
2020/12/10 05:39:05;;;;;;;26.75;15.77;;;;;;;3.86;70.20;100769.22;5040223;28;20038;-81
2020/12/10 05:41:34;;;;;;;25.48;14.48;;;;;;;3.83;70.02;100770.06;5044140;28;20108;-81
2020/12/10 05:44:17;;;;;;;29.50;14.65;;;;;;;3.88;70.08;100781.47;5039181;28;20064;-81
2020/12/10 05:46:45;;;;;;;26.55;15.38;;;;;;;3.75;69.95;100774.41;5043460;28;20026;-83
2020/12/10 05:49:12;;;;;;;27.10;14.25;;;;;;;3.70;69.97;100768.22;5033517;28;20030;-79
2020/12/10 05:51:59;;;;;;;27.73;15.30;;;;;;;3.73;69.61;100765.63;5038188;28;20029;-82
2020/12/10 05:54:28;;;;;;;28.30;15.02;;;;;;;3.56;69.81;100779.50;5050297;28;20427;-84
2020/12/10 05:56:57;;;;;;;27.38;13.95;;;;;;;3.53;69.66;100776.84;5049924;28;20468;-83
2020/12/10 05:59:26;;;;;;;28.15;15.73;;;;;;;3.44;69.56;100774.16;5050824;28;20056;-82
2020/12/10 06:01:56;;;;;;;27.58;15.77;;;;;;;3.42;69.81;100777.63;5049301;28;20431;-82
2020/12/10 06:04:24;;;;;;;28.52;15.23;;;;;;;3.34;69.73;100781.06;5050322;28;20044;-82
2020/12/10 06:06:51;;;;;;;29.67;16.08;;;;;;;3.32;69.60;100776.69;5049646;28;20029;-82
2020/12/10 06:09:19;;;;;;;31.92;15.35;;;;;;;3.23;69.95;100787.94;5050310;28;20064;-82
2020/12/10 06:11:45;;;;;;;29.88;16.10;;;;;;;3.26;69.93;100789.72;5048603;28;20029;-82
2020/12/10 06:14:12;;;;;;;30.92;18.05;;;;;;;3.28;70.05;100791.47;5050063;28;20151;-82
2020/12/10 06:16:38;;;;;;;28.35;15.60;;;;;;;3.29;69.80;100790.63;5036826;28;20073;-82
2020/12/10 06:19:06;;;;;;;23.75;13.38;;;;;;;3.29;69.81;100802.81;5030049;28;20026;-81
2020/12/10 06:27:22;;;;;;;29.88;15.05;;;;;;;3.29;69.59;100800.19;5080627;28;20610;-83
2020/12/10 06:29:49;;;;;;;27.23;15.20;;;;;;;3.19;69.93;100800.13;5068695;28;20392;-83
2020/12/10 06:32:17;;;;;;;27.90;15.73;;;;;;;3.10;70.06;100801.78;5059848;28;20543;-82
2020/12/10 06:34:55;;;;;;;29.88;15.05;;;;;;;3.13;69.84;100796.56;5039873;28;20096;-82
2020/12/10 06:37:27;;;;;;;25.38;14.75;;;;;;;3.14;69.77;100800.94;5044140;28;20017;-82
2020/12/10 06:39:56;;;;;;;27.95;15.45;;;;;;;3.08;69.83;100801.78;5044276;28;20133;-82
2020/12/10 06:42:22;;;;;;;29.08;16.17;;;;;;;2.98;69.85;100797.28;5044172;28;20033;-83
2020/12/10 06:44:49;;;;;;;28.58;14.82;;;;;;;2.98;70.02;100805.13;5041052;28;20033;-83
2020/12/10 06:47:15;;;;;;;32.08;16.20;;;;;;;2.94;69.77;100798.13;5039782;28;20036;-83
2020/12/10 06:49:41;;;;;;;26.50;14.85;;;;;;;2.88;70.02;100799.81;5040626;28;20037;-82
2020/12/10 06:55:10;;;;;;;30.08;15.93;;;;;;;2.86;70.39;100801.53;5065444;28;20635;-83
2020/12/10 06:58:14;;;;;;;29.17;16.88;;;;;;;2.89;70.03;100798.97;5039382;28;20032;-84
2020/12/10 07:00:47;;;;;;;29.95;15.80;;;;;;;2.75;70.15;100795.28;5038597;28;20106;-83
2020/12/10 07:03:20;;;;;;;30.25;15.80;;;;;;;2.73;70.17;100803.13;5035200;28;20045;-83
2020/12/10 07:05:48;;;;;;;32.55;16.40;;;;;;;2.72;70.16;100806.59;5046504;28;20033;-83
2020/12/10 07:08:16;;;;;;;30.27;16.60;;;;;;;2.72;70.40;100800.50;5049943;28;20741;-82
2020/12/10 07:10:46;;;;;;;32.97;16.60;;;;;;;2.74;70.42;100798.78;5049702;28;20040;-83
2020/12/10 07:13:15;;;;;;;32.35;15.65;;;;;;;2.72;70.53;100796.16;5049814;28;20080;-82
2020/12/10 07:15:49;;;;;;;29.85;15.88;;;;;;;2.82;70.54;100797.13;5048278;28;20095;-83
2020/12/10 07:18:15;;;;;;;28.33;15.18;;;;;;;2.71;71.16;100803.97;5049170;28;20431;-80
2020/12/10 07:20:41;;;;;;;29.58;15.90;;;;;;;2.83;71.09;100814.59;5048058;28;20037;-81
2020/12/10 07:23:08;;;;;;;37.78;18.02;;;;;;;2.89;70.78;100812.03;5049466;28;20455;-82
2020/12/10 07:25:34;;;;;;;31.45;16.30;;;;;;;2.91;71.04;100802.44;5049321;28;20033;-81
2020/12/10 07:28:00;;;;;;;30.45;16.92;;;;;;;2.88;71.36;100807.66;5037300;28;20061;-80
2020/12/10 07:30:30;;;;;;;34.13;17.77;;;;;;;2.98;71.02;100797.28;5049203;28;20029;-81
2020/12/10 07:32:57;;;;;;;31.83;17.30;;;;;;;3.02;70.93;100804.31;5048655;28;20062;-82
2020/12/10 07:35:40;;;;;;;29.88;16.60;;;;;;;3.10;70.62;100802.66;5047101;28;20033;-81
2020/12/10 07:38:15;;;;;;;32.85;16.77;;;;;;;3.13;70.53;100809.66;5049526;28;20029;-80
2020/12/10 07:40:43;;;;;;;37.70;18.95;;;;;;;3.11;70.62;100803.53;5049474;28;20029;-81
2020/12/10 07:43:10;;;;;;;52.78;25.13;;;;;;;3.19;70.81;100807.09;5049722;28;20033;-80
2020/12/10 07:45:37;;;;;;;36.75;18.17;;;;;;;3.23;70.34;100808.91;5049293;28;20087;-80
2020/12/10 07:48:05;;;;;;;32.67;16.23;;;;;;;3.34;70.16;100808.97;5049056;28;20023;-79
2020/12/10 07:50:36;;;;;;;29.45;16.27;;;;;;;3.35;70.62;100805.50;5089256;22;20032;-82
2020/12/10 07:53:08;;;;;;;27.13;15.00;;;;;;;3.42;70.57;100814.31;5028262;28;20041;-89
2020/12/10 07:55:39;;;;;;;31.08;16.73;;;;;;;3.38;70.06;100809.03;5029521;28;20041;-86
2020/12/10 07:58:22;;;;;;;32.08;17.02;;;;;;;3.38;69.88;100809.03;5013741;28;20045;-85
2020/12/10 08:00:49;;;;;;;32.90;16.65;;;;;;;3.24;69.97;100813.28;5022128;28;20476;-86
2020/12/10 08:06:08;;;;;;;26.75;15.35;;;;;;;3.13;69.59;100813.16;5042378;27;800078;-84
2020/12/10 08:08:39;;;;;;;24.77;14.18;;;;;;;3.08;69.55;100809.63;5050858;28;20033;-84
2020/12/10 08:11:07;;;;;;;26.80;15.23;;;;;;;3.03;69.74;100816.56;5025164;28;20048;-84
2020/12/10 08:13:33;;;;;;;25.85;14.23;;;;;;;2.98;69.72;100810.38;5038208;28;20025;-84
2020/12/10 08:16:07;;;;;;;31.35;16.80;;;;;;;2.91;70.07;100819.91;5038855;28;20036;-84
2020/12/10 08:18:37;;;;;;;26.98;15.10;;;;;;;2.85;70.27;100819.84;5045550;28;20032;-84
2020/12/10 08:21:06;;;;;;;27.83;15.02;;;;;;;2.74;70.76;100819.69;5049794;28;20033;-84
2020/12/10 08:23:45;;;;;;;29.83;15.63;;;;;;;2.86;70.26;100829.44;5051223;28;20061;-84
2020/12/10 08:26:13;;;;;;;31.88;15.88;;;;;;;2.80;70.59;100824.16;5050310;28;20030;-82
2020/12/10 08:28:50;;;;;;;30.35;16.38;;;;;;;2.81;70.23;100824.16;5049979;28;20484;-82
2020/12/10 08:31:23;;;;;;;25.55;13.60;;;;;;;2.86;70.32;100830.31;5050064;28;20030;-82
2020/12/10 08:33:51;;;;;;;26.33;13.68;;;;;;;2.78;70.55;100826.75;5031747;28;20033;-82
2020/12/10 08:36:34;;;;;;;170.15;24.95;;;;;;;2.92;71.79;100832.13;5030132;28;20034;-82
2020/12/10 08:39:03;;;;;;;28.52;15.68;;;;;;;2.91;71.04;100826.00;5029954;28;20029;-82
2020/12/10 08:41:32;;;;;;;30.60;16.13;;;;;;;2.99;71.00;100827.84;5031842;28;20036;-82
2020/12/10 08:44:04;;;;;;;24.85;14.57;;;;;;;3.05;70.71;100828.78;5039667;28;20508;-81
2020/12/10 08:46:31;;;;;;;31.73;15.32;;;;;;;3.01;70.76;100826.97;5009859;28;20033;-83
2020/12/10 08:49:16;;;;;;;48.65;24.80;;;;;;;3.13;70.60;100823.63;5010434;28;20027;-83
2020/12/10 08:51:43;;;;;;;29.90;16.63;;;;;;;3.04;70.81;100821.81;5009898;28;20041;-81
2020/12/10 08:54:10;;;;;;;34.50;16.80;;;;;;;3.02;70.90;100825.25;5010098;28;20489;-79
2020/12/10 08:56:38;;;;;;;28.13;14.55;;;;;;;3.11;70.60;100825.34;5017183;28;20396;-82
2020/12/10 08:59:05;;;;;;;32.05;16.40;;;;;;;3.20;70.64;100832.41;5032975;28;20060;-82
2020/12/10 09:01:32;;;;;;;30.35;14.65;;;;;;;3.18;70.75;100827.16;5039123;28;20381;-83
2020/12/10 09:03:58;;;;;;;27.65;14.55;;;;;;;3.27;70.42;100830.75;5028857;28;20038;-82
2020/12/10 09:06:33;;;;;;;27.15;15.10;;;;;;;3.30;70.29;100830.78;5039771;28;20503;-82
2020/12/10 09:09:00;;;;;;;28.48;15.77;;;;;;;3.28;70.70;100828.16;5029025;28;20063;-82
2020/12/10 09:11:26;;;;;;;29.55;15.30;;;;;;;3.38;70.21;100823.88;5046658;28;20037;-82
2020/12/10 09:13:52;;;;;;;28.10;15.30;;;;;;;3.38;70.19;100829.97;5049316;28;20033;-82
2020/12/10 09:16:29;;;;;;;27.40;14.27;;;;;;;3.51;69.43;100830.09;5041038;28;20368;-84
2020/12/10 09:18:55;;;;;;;26.50;14.73;;;;;;;3.52;70.14;100824.00;5023954;28;20034;-81
2020/12/10 09:21:21;;;;;;;26.50;14.27;;;;;;;3.54;69.91;100825.75;5011470;23;20046;-84
2020/12/10 09:23:48;;;;;;;26.63;15.77;;;;;;;3.54;69.79;100820.53;4976643;28;20505;-83
2020/12/10 09:26:15;;;;;;;27.00;14.60;;;;;;;3.63;69.47;100824.09;4976370;28;20498;-83
2020/12/10 09:28:42;;;;;;;22.27;13.98;;;;;;;3.68;69.39;100827.63;4976909;28;20058;-86
2020/12/10 09:31:08;;;;;;;28.65;15.05;;;;;;;3.70;69.56;100825.88;4984419;28;20037;-87
2020/12/10 09:33:35;;;;;;;53.08;25.98;;;;;;;3.74;69.73;100822.44;4996708;28;20030;-88
2020/12/10 09:36:01;;;;;;;27.90;15.55;;;;;;;3.78;69.29;100825.97;4996125;28;20022;-84
2020/12/10 09:38:27;;;;;;;27.35;15.10;;;;;;;3.87;69.38;100829.50;4996472;28;20038;-81
2020/12/10 09:40:55;;;;;;;26.92;14.95;;;;;;;3.83;69.35;100812.00;4995890;28;20062;-83
2020/12/10 09:43:21;;;;;;;23.67;13.80;;;;;;;3.85;68.90;100809.38;4996566;28;20089;-84
2020/12/10 09:45:54;;;;;;;24.60;13.95;;;;;;;3.88;69.08;100820.78;4995843;28;20117;-83
2020/12/10 09:48:20;;;;;;;22.50;13.35;;;;;;;3.93;68.73;100818.19;4964919;28;20426;-82
2020/12/10 09:50:46;;;;;;;22.92;12.18;;;;;;;3.94;68.84;100819.94;4977935;28;20090;-82
2020/12/10 09:53:20;;;;;;;24.67;13.80;;;;;;;3.99;69.16;100817.38;4976682;28;20042;-82
2020/12/10 09:56:12;;;;;;;24.85;13.82;;;;;;;4.01;69.05;100815.63;4978388;28;20452;-82
2020/12/10 09:58:32;;;;;;;29.25;14.70;;;;;;;4.00;68.81;100814.75;4985851;28;20410;-82
2020/12/10 10:00:59;;;;;;;26.55;14.88;;;;;;;4.10;68.42;100810.44;4981144;28;20027;-82
2020/12/10 10:03:25;;;;;;;23.13;13.88;;;;;;;4.10;68.52;100805.19;4976971;28;20027;-82
2020/12/10 10:05:51;;;;;;;22.42;13.35;;;;;;;4.14;68.23;100806.97;4982445;28;20117;-82
2020/12/10 10:08:20;;;;;;;29.35;14.65;;;;;;;4.11;68.39;100806.97;4985744;28;20054;-83
2020/12/10 10:10:47;;;;;;;26.15;14.93;;;;;;;4.17;68.53;100806.97;4984169;28;20385;-83
2020/12/10 10:13:13;;;;;;;24.63;14.40;;;;;;;4.17;68.34;100812.22;4985849;28;20030;-82
2020/12/10 10:15:41;;;;;;;25.38;14.85;;;;;;;4.20;67.90;100811.38;4985452;28;20031;-82
2020/12/10 10:18:07;;;;;;;23.13;14.18;;;;;;;4.23;68.39;100810.53;4984224;28;20027;-82
2020/12/10 10:20:33;;;;;;;23.20;13.68;;;;;;;4.23;68.62;100813.16;4984395;28;20049;-82
2020/12/10 10:22:59;;;;;;;20.30;12.90;;;;;;;4.27;68.01;100807.03;4984828;28;20033;-82
2020/12/10 10:25:25;;;;;;;23.05;14.02;;;;;;;4.28;68.47;100808.78;4985856;28;20092;-82
2020/12/10 10:27:53;;;;;;;27.30;15.05;;;;;;;4.36;68.13;100807.06;4987913;28;20105;-82
2020/12/10 10:30:23;;;;;;;29.20;13.77;;;;;;;4.44;67.96;100813.25;4981534;28;20453;-83
2020/12/10 10:32:49;;;;;;;24.20;14.43;;;;;;;4.41;67.80;100810.63;4976868;28;20031;-83
2020/12/10 10:35:15;;;;;;;26.20;14.63;;;;;;;4.46;68.08;100814.13;4975783;28;20038;-82
2020/12/10 10:37:41;;;;;;;23.45;13.63;;;;;;;4.50;68.08;100815.03;4975854;28;20018;-83
2020/12/10 10:40:08;;;;;;;27.42;13.80;;;;;;;4.56;67.79;100814.16;4974368;28;20097;-85
2020/12/10 10:42:34;;;;;;;25.52;13.77;;;;;;;4.52;67.58;100814.16;4978610;28;20030;-82
2020/12/10 10:45:01;;;;;;;23.48;13.02;;;;;;;4.58;67.45;100809.81;4982739;28;20034;-83
2020/12/10 10:47:29;;;;;;;29.10;14.23;;;;;;;4.60;68.01;100811.56;4981486;28;20019;-84
2020/12/10 10:49:55;;;;;;;23.85;13.93;;;;;;;4.67;67.25;100809.84;4975176;28;20027;-83
2020/12/10 10:52:21;;;;;;;24.02;13.90;;;;;;;4.68;67.69;100815.06;4974945;28;20023;-83
2020/12/10 10:54:47;;;;;;;23.35;13.77;;;;;;;4.71;67.37;100814.25;4975179;28;20031;-83
2020/12/10 10:57:13;;;;;;;23.52;13.65;;;;;;;4.78;67.20;100805.50;4974109;28;20126;-84
2020/12/10 10:59:40;;;;;;;26.10;14.10;;;;;;;4.75;67.83;100805.50;4975004;28;20526;-83
2020/12/10 11:02:06;;;;;;;26.60;12.98;;;;;;;4.87;67.49;100809.88;4981750;28;20031;-83
2020/12/10 11:04:32;;;;;;;23.63;13.00;;;;;;;4.82;67.70;100809.00;4983361;28;20035;-81
2020/12/10 11:06:58;;;;;;;26.40;14.32;;;;;;;4.88;67.37;100805.53;4984829;28;20478;-83
2020/12/10 11:09:25;;;;;;;25.27;15.38;;;;;;;4.89;67.50;100804.66;4984361;28;20046;-84
2020/12/10 11:11:54;;;;;;;25.60;14.80;;;;;;;4.93;66.92;100802.03;4982873;28;20062;-83
2020/12/10 11:14:21;;;;;;;25.85;15.65;;;;;;;4.98;67.42;100800.28;4981600;28;20027;-82
2020/12/10 11:16:48;;;;;;;26.38;15.30;;;;;;;4.97;67.12;100800.28;4982895;28;20037;-81
2020/12/10 11:19:14;;;;;;;29.58;16.48;;;;;;;5.05;67.00;100793.31;4985221;28;20393;-82
2020/12/10 11:21:40;;;;;;;25.92;15.05;;;;;;;5.07;66.92;100782.81;4987680;28;20557;-82
2020/12/10 11:24:06;;;;;;;26.67;15.35;;;;;;;5.08;66.96;100781.94;4974802;28;20063;-82
2020/12/10 11:26:32;;;;;;;24.40;15.27;;;;;;;5.12;67.04;100781.97;4974867;28;20055;-82
2020/12/10 11:28:59;;;;;;;25.15;14.98;;;;;;;5.10;67.01;100775.81;4978550;28;20062;-82
2020/12/10 11:31:26;;;;;;;28.17;15.77;;;;;;;5.16;66.91;100775.81;4974492;28;20122;-85
2020/12/10 11:33:52;;;;;;;28.20;15.60;;;;;;;5.26;66.81;100775.81;4975201;28;20421;-82
2020/12/10 11:36:20;;;;;;;23.38;14.32;;;;;;;5.35;66.53;100767.97;4957278;28;20077;-84
2020/12/10 11:38:46;;;;;;;25.10;14.60;;;;;;;5.30;66.37;100760.06;4974336;28;20038;-85